createdAt,value
2018-09-10T00:00:15.844Z,85.19
2018-09-10T00:02:43.501Z,85.14
2018-09-10T00:05:11.199Z,86.15
2018-09-10T00:07:38.977Z,85.43
2018-09-10T00:10:06.681Z,85.08
2018-09-10T00:12:34.346Z,85.44
2018-09-10T00:15:02.062Z,86.32
2018-09-10T00:17:29.760Z,85.97
2018-09-10T00:19:58.516Z,85.51
2018-09-10T00:22:26.182Z,85.53
2018-09-10T00:24:53.870Z,84.86
2018-09-10T00:27:21.845Z,85.48
2018-09-10T00:29:49.829Z,84.93
2018-09-10T00:32:17.490Z,84.53
2018-09-10T00:34:45.498Z,84.79
2018-09-10T00:37:13.156Z,85.68
2018-09-10T00:39:40.869Z,86.20
2018-09-10T00:42:08.577Z,86.39
2018-09-10T00:44:36.283Z,86.21
2018-09-10T00:47:04.294Z,85.32
2018-09-10T00:49:31.977Z,85.97
2018-09-10T00:51:59.667Z,85.21
2018-09-10T00:54:27.364Z,84.80
2018-09-10T00:56:55.029Z,84.84
2018-09-10T00:59:22.697Z,84.97
2018-09-10T01:01:50.373Z,84.39
2018-09-10T01:04:28.485Z,84.33
2018-09-10T01:06:56.408Z,84.58
2018-09-10T01:09:24.337Z,86.07
2018-09-10T01:11:52.275Z,85.32
2018-09-10T01:14:20.205Z,85.49
2018-09-10T01:16:47.913Z,84.85
2018-09-10T01:19:15.776Z,84.61
2018-09-10T01:21:43.468Z,86.35
2018-09-10T01:24:11.229Z,86.30
2018-09-10T01:26:38.909Z,85.80
2018-09-10T01:29:06.586Z,85.47
2018-09-10T01:31:34.304Z,85.25
2018-09-10T01:34:07.808Z,86.52
2018-09-10T01:36:35.501Z,86.02
2018-09-10T01:39:03.993Z,86.61
2018-09-10T01:41:31.671Z,86.91
2018-09-10T01:43:59.336Z,87.08
2018-09-10T01:46:27.029Z,86.69
2018-09-10T01:48:54.692Z,85.55
2018-09-10T01:51:22.408Z,85.64
2018-09-10T01:53:50.081Z,85.53
2018-09-10T01:56:17.770Z,85.04
2018-09-10T01:58:45.472Z,86.33
2018-09-10T02:01:13.150Z,85.90
2018-09-10T02:03:40.820Z,86.61
2018-09-10T02:06:08.504Z,86.71
2018-09-10T02:08:36.196Z,85.46
2018-09-10T02:11:04.347Z,85.05
2018-09-10T02:13:32.078Z,85.27
2018-09-10T02:15:59.753Z,85.11
2018-09-10T02:18:27.433Z,85.10
2018-09-10T02:20:55.106Z,84.98
2018-09-10T02:23:22.765Z,84.91
2018-09-10T02:25:50.469Z,84.90
2018-09-10T02:28:18.442Z,85.00
2018-09-10T02:30:46.114Z,84.74
2018-09-10T02:33:13.788Z,84.67
2018-09-10T02:35:41.474Z,84.88
2018-09-10T02:38:09.214Z,84.92
2018-09-10T02:40:36.929Z,86.74
2018-09-10T02:43:05.231Z,85.65
2018-09-10T02:45:32.910Z,85.19
2018-09-10T02:48:00.585Z,84.99
2018-09-10T02:50:28.657Z,85.00
2018-09-10T02:52:56.355Z,84.84
2018-09-10T02:55:24.085Z,84.51
2018-09-10T02:57:51.766Z,85.20
2018-09-10T03:00:23.945Z,85.04
2018-09-10T03:02:52.224Z,85.03
2018-09-10T03:05:19.930Z,85.32
2018-09-10T03:07:47.627Z,84.93
2018-09-10T03:10:15.307Z,84.85
2018-09-10T03:12:42.985Z,84.62
2018-09-10T03:15:10.677Z,84.46
2018-09-10T03:17:38.364Z,85.69
2018-09-10T03:20:06.176Z,86.81
2018-09-10T03:22:33.858Z,86.06
2018-09-10T03:25:01.547Z,86.01
2018-09-10T03:27:29.249Z,86.00
2018-09-10T03:29:57.008Z,85.96
2018-09-10T03:32:24.696Z,86.31
2018-09-10T03:34:52.402Z,86.48
2018-09-10T03:37:20.087Z,87.42
2018-09-10T03:39:47.767Z,87.00
2018-09-10T03:42:15.446Z,86.40
2018-09-10T03:44:43.459Z,86.09
2018-09-10T03:47:11.215Z,86.11
2018-09-10T03:49:38.908Z,86.99
2018-09-10T03:52:06.615Z,86.55
2018-09-10T03:54:34.286Z,86.89
2018-09-10T03:57:01.965Z,87.53
2018-09-10T03:59:29.647Z,86.68
2018-09-10T04:01:57.638Z,86.33
2018-09-10T04:04:25.568Z,86.08
2018-09-10T04:06:53.295Z,86.11
2018-09-10T04:09:20.997Z,85.87
2018-09-10T04:11:48.687Z,85.93
2018-09-10T04:14:16.416Z,86.06
2018-09-10T04:16:44.106Z,86.00
2018-09-10T04:19:11.876Z,85.98
2018-09-10T04:21:39.551Z,85.63
2018-09-10T04:24:07.390Z,86.21
2018-09-10T04:26:35.088Z,85.96
2018-09-10T04:29:02.826Z,86.09
2018-09-10T04:31:30.631Z,86.06
2018-09-10T04:33:58.310Z,86.01
2018-09-10T04:36:26.017Z,86.62
2018-09-10T04:38:53.831Z,86.54
2018-09-10T04:41:21.513Z,86.10
2018-09-10T04:43:49.472Z,86.46
2018-09-10T04:46:17.159Z,86.80
2018-09-10T04:48:44.833Z,86.87
2018-09-10T04:51:12.640Z,85.94
2018-09-10T04:53:40.312Z,86.47
2018-09-10T04:56:08.007Z,86.91
2018-09-10T04:58:35.686Z,86.04
2018-09-10T05:01:03.475Z,85.92
2018-09-10T05:03:31.227Z,86.71
2018-09-10T05:05:59.149Z,86.86
2018-09-10T05:08:26.837Z,85.93
2018-09-10T05:10:54.587Z,86.23
2018-09-10T05:13:22.295Z,86.93
2018-09-10T05:15:50.111Z,88.23
2018-09-10T05:18:17.918Z,86.19
2018-09-10T05:20:45.621Z,86.43
2018-09-10T05:23:13.588Z,86.82
2018-09-10T05:25:41.271Z,87.16
2018-09-10T05:28:09.128Z,86.65
2018-09-10T05:30:36.827Z,87.49
2018-09-10T05:33:04.539Z,86.24
2018-09-10T05:35:32.287Z,86.73
2018-09-10T05:37:59.994Z,86.33
2018-09-10T05:40:27.809Z,88.37
2018-09-10T05:42:55.490Z,86.48
2018-09-10T05:45:23.282Z,87.31
2018-09-10T05:47:51.098Z,86.88
2018-09-10T05:50:18.773Z,85.79
2018-09-10T05:52:46.460Z,86.17
2018-09-10T05:55:14.192Z,86.45
2018-09-10T05:57:42.019Z,86.28
2018-09-10T06:00:10.213Z,86.82
2018-09-10T06:02:37.993Z,87.54
2018-09-10T06:05:05.866Z,86.17
2018-09-10T06:07:33.640Z,87.17
2018-09-10T06:10:01.309Z,86.83
2018-09-10T06:12:29.107Z,86.36
2018-09-10T06:14:56.826Z,88.23
2018-09-10T06:17:24.490Z,86.57
2018-09-10T06:19:52.503Z,86.74
2018-09-10T06:22:20.721Z,86.49
2018-09-10T06:24:48.398Z,87.54
2018-09-10T06:27:16.218Z,87.48
2018-09-10T06:29:43.931Z,86.34
2018-09-10T06:32:11.565Z,86.28
2018-09-10T06:34:39.233Z,86.31
2018-09-10T06:37:07.035Z,86.25
2018-09-10T06:39:34.717Z,86.18
2018-09-10T06:42:02.741Z,86.02
2018-09-10T06:44:30.665Z,86.74
2018-09-10T06:46:58.317Z,86.52
2018-09-10T06:49:26.098Z,86.08
2018-09-10T06:51:53.771Z,86.06
2018-09-10T06:54:21.415Z,85.88
2018-09-10T06:56:49.103Z,85.82
2018-09-10T06:59:16.754Z,86.13
2018-09-10T07:01:44.429Z,86.19
2018-09-10T07:04:12.082Z,85.73
2018-09-10T07:06:39.748Z,85.70
2018-09-10T07:09:08.755Z,85.43
2018-09-10T07:11:36.993Z,85.79
2018-09-10T07:14:04.695Z,85.76
2018-09-10T07:16:32.366Z,85.49
2018-09-10T07:19:00.068Z,85.64
2018-09-10T07:21:27.714Z,85.73
2018-09-10T07:23:55.369Z,85.65
2018-09-10T07:26:23.056Z,86.28
2018-09-10T07:28:50.722Z,85.26
2018-09-10T07:31:18.522Z,85.87
2018-09-10T07:33:46.488Z,85.37
2018-09-10T07:36:14.182Z,85.44
2018-09-10T07:38:41.838Z,85.17
2018-09-10T07:41:09.579Z,85.31
2018-09-10T07:43:37.445Z,84.81
2018-09-10T07:46:05.518Z,84.76
2018-09-10T07:48:33.221Z,84.38
2018-09-10T07:51:00.942Z,84.56
2018-09-10T07:53:28.636Z,84.56
2018-09-10T07:55:57.232Z,84.55
2018-09-10T07:58:24.949Z,84.49
2018-09-10T08:00:52.950Z,84.22
2018-09-10T08:03:20.717Z,84.24
2018-09-10T08:05:48.409Z,83.94
2018-09-10T08:08:16.124Z,83.80
2018-09-10T08:10:43.837Z,83.68
2018-09-10T08:13:11.538Z,83.65
2018-09-10T08:15:39.237Z,83.57
2018-09-10T08:18:06.929Z,83.53
2018-09-10T08:20:34.639Z,83.28
2018-09-10T08:23:02.347Z,83.38
2018-09-10T08:25:30.053Z,83.36
2018-09-10T08:27:57.744Z,82.80
2018-09-10T08:30:25.457Z,83.08
2018-09-10T08:32:53.180Z,83.11
2018-09-10T08:35:20.886Z,83.35
2018-09-10T08:37:48.625Z,83.00
2018-09-10T08:40:16.336Z,83.07
2018-09-10T08:42:44.075Z,82.65
2018-09-10T08:45:11.761Z,83.07
2018-09-10T08:47:39.476Z,81.83
2018-09-10T08:50:08.211Z,82.39
2018-09-10T08:52:36.068Z,82.13
2018-09-10T08:55:04.167Z,82.39
2018-09-10T08:57:31.729Z,82.08
2018-09-10T08:59:59.544Z,82.62
2018-09-10T09:02:27.317Z,81.93
2018-09-10T09:04:55.083Z,82.40
2018-09-10T09:07:22.792Z,82.15
2018-09-10T09:09:50.612Z,81.98
2018-09-10T09:12:18.301Z,82.23
2018-09-10T09:14:46.008Z,81.94
2018-09-10T09:17:13.927Z,81.67
2018-09-10T09:19:41.646Z,81.69
2018-09-10T09:22:09.350Z,81.75
2018-09-10T09:24:37.113Z,81.69
2018-09-10T09:27:04.907Z,81.60
2018-09-10T09:29:32.622Z,81.67
2018-09-10T09:32:00.430Z,81.01
2018-09-10T09:34:32.618Z,81.15
2018-09-10T09:37:05.921Z,81.53
2018-09-10T09:39:39.096Z,81.33
2018-09-10T09:42:12.381Z,81.24
2018-09-10T09:44:45.578Z,81.41
2018-09-10T09:47:13.354Z,81.36
2018-09-10T09:49:41.010Z,81.25
2018-09-10T09:52:08.698Z,81.21
2018-09-10T09:54:36.414Z,80.99
2018-09-10T09:57:04.169Z,80.61
2018-09-10T09:59:31.852Z,81.00
2018-09-10T10:02:05.044Z,80.81
2018-09-10T10:04:32.885Z,80.94
2018-09-10T10:07:00.535Z,80.75
2018-09-10T10:09:28.237Z,80.95
2018-09-10T10:11:56.018Z,80.75
2018-09-10T10:14:23.697Z,80.04
2018-09-10T10:16:51.353Z,80.29
2018-09-10T10:19:19.047Z,80.45
2018-09-10T10:21:46.857Z,79.55
2018-09-10T10:24:14.552Z,79.91
2018-09-10T10:26:42.253Z,79.96
2018-09-10T10:29:09.943Z,80.01
2018-09-10T10:31:37.652Z,79.87
2018-09-10T10:34:05.354Z,79.62
2018-09-10T10:36:33.175Z,79.35
2018-09-10T10:39:01.734Z,79.56
2018-09-10T10:41:29.424Z,79.80
2018-09-10T10:43:57.230Z,79.70
2018-09-10T10:46:24.912Z,79.50
2018-09-10T10:48:52.609Z,79.03
2018-09-10T10:51:20.415Z,78.59
2018-09-10T10:53:48.170Z,79.04
2018-09-10T10:56:15.818Z,79.24
2018-09-10T10:58:43.505Z,78.81
2018-09-10T11:01:11.330Z,79.25
2018-09-10T11:03:39.015Z,78.18
2018-09-10T11:06:06.825Z,79.01
2018-09-10T11:08:34.536Z,78.61
2018-09-10T11:11:02.238Z,78.14
2018-09-10T11:13:29.938Z,78.09
2018-09-10T11:15:57.664Z,78.07
2018-09-10T11:18:25.440Z,78.05
2018-09-10T11:20:53.144Z,77.99
2018-09-10T11:23:20.832Z,77.55
2018-09-10T11:25:48.530Z,77.06
2018-09-10T11:28:16.234Z,77.32
2018-09-10T11:30:43.952Z,77.21
2018-09-10T11:33:11.671Z,75.25
2018-09-10T11:35:39.354Z,75.49
2018-09-10T11:38:07.145Z,77.01
2018-09-10T11:40:34.850Z,76.79
2018-09-10T11:43:02.553Z,76.46
2018-09-10T11:45:30.256Z,76.48
2018-09-10T11:47:57.940Z,76.72
2018-09-10T11:50:25.637Z,75.68
2018-09-10T11:52:53.293Z,76.53
2018-09-10T11:55:21.317Z,76.69
2018-09-10T11:57:48.985Z,76.78
2018-09-10T12:00:16.702Z,76.30
2018-09-10T12:02:44.332Z,75.95
2018-09-10T12:05:12.023Z,75.94
2018-09-10T12:07:39.665Z,75.53
2018-09-10T12:10:07.396Z,76.21
2018-09-10T12:12:35.108Z,76.14
2018-09-10T12:15:04.406Z,75.71
2018-09-10T12:17:32.085Z,76.36
2018-09-10T12:19:59.873Z,76.31
2018-09-10T12:22:27.538Z,76.31
2018-09-10T12:24:55.189Z,76.53
2018-09-10T12:27:22.891Z,76.40
2018-09-10T12:29:50.542Z,76.72
2018-09-10T12:32:18.296Z,76.63
2018-09-10T12:34:45.918Z,76.60
2018-09-10T12:37:13.575Z,76.53
2018-09-10T12:39:41.234Z,76.45
2018-09-10T12:42:08.847Z,76.43
2018-09-10T12:44:36.448Z,76.60
2018-09-10T12:47:04.096Z,76.80
2018-09-10T12:49:31.771Z,76.60
2018-09-10T12:51:59.407Z,76.54
2018-09-10T12:54:27.411Z,76.82
2018-09-10T12:56:55.053Z,76.98
2018-09-10T12:59:22.671Z,77.10
2018-09-10T13:01:50.282Z,77.04
2018-09-10T13:04:17.955Z,77.15
2018-09-10T13:06:45.576Z,77.09
2018-09-10T13:09:13.211Z,77.32
2018-09-10T13:11:40.835Z,76.96
2018-09-10T13:14:08.452Z,76.82
2018-09-10T13:16:36.089Z,77.00
2018-09-10T13:19:03.768Z,76.98
2018-09-10T13:21:31.406Z,76.97
2018-09-10T13:23:59.390Z,77.35
2018-09-10T13:26:27.008Z,77.12
2018-09-10T13:28:54.618Z,77.16
2018-09-10T13:31:22.255Z,77.10
2018-09-10T13:33:49.954Z,76.92
2018-09-10T13:36:17.895Z,77.14
2018-09-10T13:38:45.553Z,76.92
2018-09-10T13:41:13.157Z,76.84
2018-09-10T13:43:41.063Z,77.26
2018-09-10T13:46:08.710Z,77.13
2018-09-10T13:48:36.569Z,76.96
2018-09-10T13:51:04.197Z,77.38
2018-09-10T13:53:31.814Z,77.45
2018-09-10T13:55:59.624Z,77.75
2018-09-10T13:58:27.252Z,78.01
2018-09-10T14:00:55.178Z,77.89
2018-09-10T14:03:22.809Z,77.79
2018-09-10T14:05:50.464Z,77.70
2018-09-10T14:08:18.108Z,77.66
2018-09-10T14:10:45.797Z,77.82
2018-09-10T14:13:13.400Z,77.84
2018-09-10T14:15:41.068Z,77.99
2018-09-10T14:18:08.694Z,78.34
2018-09-10T14:20:36.349Z,79.12
2018-09-10T14:23:04.023Z,78.83
2018-09-10T14:25:31.670Z,79.72
2018-09-10T14:27:59.652Z,78.70
2018-09-10T14:30:27.373Z,80.33
2018-09-10T14:32:55.091Z,79.24
2018-09-10T14:35:22.740Z,79.12
2018-09-10T14:37:50.367Z,79.88
2018-09-10T14:40:18.021Z,79.66
2018-09-10T14:42:45.733Z,79.47
2018-09-10T14:45:13.367Z,79.74
2018-09-10T14:47:41.046Z,79.23
2018-09-10T14:50:08.737Z,79.68
2018-09-10T14:52:36.428Z,79.70
2018-09-10T14:55:04.627Z,79.20
2018-09-10T14:57:32.246Z,78.33
2018-09-10T14:59:59.910Z,79.18
2018-09-10T15:02:27.551Z,78.85
2018-09-10T15:04:55.180Z,78.59
2018-09-10T15:07:22.847Z,78.49
2018-09-10T15:09:50.504Z,78.61
2018-09-10T15:12:18.467Z,78.82
2018-09-10T15:14:46.121Z,79.21
2018-09-10T15:17:13.810Z,79.47
2018-09-10T15:19:41.430Z,79.47
2018-09-10T15:22:09.091Z,79.61
2018-09-10T15:24:36.728Z,80.08
2018-09-10T15:27:04.394Z,80.83
2018-09-10T15:29:32.251Z,81.82
2018-09-10T15:31:59.882Z,81.34
2018-09-10T15:34:27.882Z,80.39
2018-09-10T15:36:55.486Z,80.16
2018-09-10T15:39:23.165Z,81.02
2018-09-10T15:41:51.186Z,80.90
2018-09-10T15:44:18.831Z,80.71
2018-09-10T15:46:46.541Z,81.30
2018-09-10T15:49:14.185Z,81.90
2018-09-10T15:51:41.820Z,81.79
2018-09-10T15:54:09.440Z,82.21
2018-09-10T15:56:37.118Z,82.24
2018-09-10T15:59:04.940Z,81.20
2018-09-10T16:01:32.591Z,81.41
2018-09-10T16:04:00.261Z,81.62
2018-09-10T16:06:27.930Z,81.67
2018-09-10T16:08:55.546Z,81.94
2018-09-10T16:11:23.171Z,82.01
2018-09-10T16:13:51.160Z,81.91
2018-09-10T16:16:18.825Z,82.02
2018-09-10T16:18:46.479Z,81.68
2018-09-10T16:21:14.460Z,81.87
2018-09-10T16:23:42.070Z,81.85
2018-09-10T16:26:09.777Z,81.75
2018-09-10T16:28:37.401Z,82.53
2018-09-10T16:31:05.508Z,82.38
2018-09-10T16:33:33.213Z,82.37
2018-09-10T16:36:01.186Z,82.65
2018-09-10T16:38:28.829Z,82.48
2018-09-10T16:40:56.506Z,82.69
2018-09-10T16:43:24.443Z,82.48
2018-09-10T16:45:52.092Z,83.18
2018-09-10T16:48:20.055Z,83.66
2018-09-10T16:50:47.757Z,83.42
2018-09-10T16:53:15.768Z,82.68
2018-09-10T16:55:43.439Z,83.19
2018-09-10T16:58:11.123Z,83.70
2018-09-10T17:00:39.042Z,82.55
2018-09-10T17:03:06.942Z,82.55
2018-09-10T17:05:34.737Z,82.36
2018-09-10T17:08:02.371Z,81.86
2018-09-10T17:10:30.093Z,81.93
2018-09-10T17:12:57.747Z,82.43
2018-09-10T17:15:25.388Z,82.18
2018-09-10T17:17:53.307Z,83.17
2018-09-10T17:20:21.051Z,82.46
2018-09-10T17:22:48.727Z,83.08
2018-09-10T17:25:16.315Z,82.35
2018-09-10T17:27:44.496Z,82.82
2018-09-10T17:30:12.188Z,82.38
2018-09-10T17:32:40.211Z,82.25
2018-09-10T17:35:07.851Z,82.95
2018-09-10T17:37:35.486Z,82.03
2018-09-10T17:40:03.234Z,82.37
2018-09-10T17:42:31.234Z,82.19
2018-09-10T17:44:58.891Z,82.53
2018-09-10T17:47:26.661Z,82.43
2018-09-10T17:49:54.329Z,82.69
2018-09-10T17:52:21.986Z,82.26
2018-09-10T17:54:49.628Z,82.16
2018-09-10T17:57:17.359Z,83.04
2018-09-10T17:59:45.251Z,83.05
2018-09-10T18:02:12.891Z,83.04
2018-09-10T18:04:40.524Z,83.27
2018-09-10T18:07:08.197Z,83.18
2018-09-10T18:09:35.863Z,83.47
2018-09-10T18:12:03.527Z,83.24
2018-09-10T18:14:31.536Z,82.97
2018-09-10T18:16:59.173Z,82.46
2018-09-10T18:19:26.820Z,82.87
2018-09-10T18:21:54.743Z,82.53
2018-09-10T18:24:22.400Z,82.22
2018-09-10T18:26:50.043Z,81.93
2018-09-10T18:29:17.698Z,82.39
2018-09-10T18:31:45.468Z,82.52
2018-09-10T18:34:13.090Z,82.20
2018-09-10T18:36:40.819Z,81.94
2018-09-10T18:39:09.519Z,82.03
2018-09-10T18:41:37.144Z,81.96
2018-09-10T18:44:04.775Z,82.91
2018-09-10T18:46:32.422Z,83.63
2018-09-10T18:49:00.428Z,82.91
2018-09-10T18:51:28.121Z,82.33
2018-09-10T18:53:55.767Z,82.04
2018-09-10T18:56:23.452Z,82.98
2018-09-10T18:58:51.097Z,82.34
2018-09-10T19:01:18.908Z,82.80
2018-09-10T19:03:46.792Z,82.58
2018-09-10T19:06:14.511Z,82.50
2018-09-10T19:08:42.126Z,82.80
2018-09-10T19:11:09.790Z,82.18
2018-09-10T19:13:37.396Z,82.60
2018-09-10T19:16:05.394Z,82.73
2018-09-10T19:18:38.973Z,82.04
2018-09-10T19:21:07.185Z,82.24
2018-09-10T19:23:35.621Z,82.64
2018-09-10T19:26:03.654Z,82.95
2018-09-10T19:28:31.311Z,82.80
2018-09-10T19:30:59.133Z,82.69
2018-09-10T19:33:26.790Z,83.01
2018-09-10T19:35:54.427Z,82.40
2018-09-10T19:38:22.135Z,82.28
2018-09-10T19:40:50.115Z,81.98
2018-09-10T19:43:17.761Z,81.72
2018-09-10T19:45:45.416Z,82.19
2018-09-10T19:48:13.071Z,82.05
2018-09-10T19:50:40.762Z,81.93
2018-09-10T19:53:08.667Z,81.79
2018-09-10T19:55:36.299Z,81.84
2018-09-10T19:58:04.000Z,82.46
2018-09-10T20:00:31.656Z,81.66
2018-09-10T20:02:59.594Z,83.34
2018-09-10T20:05:27.226Z,82.30
2018-09-10T20:07:55.079Z,82.16
2018-09-10T20:10:22.702Z,81.84
2018-09-10T20:12:50.384Z,82.74
2018-09-10T20:15:18.379Z,82.00
2018-09-10T20:17:46.042Z,81.94
2018-09-10T20:20:13.679Z,82.02
2018-09-10T20:22:41.361Z,82.31
2018-09-10T20:25:09.334Z,82.68
2018-09-10T20:27:37.066Z,81.73
2018-09-10T20:30:05.111Z,81.97
2018-09-10T20:32:32.755Z,82.01
2018-09-10T20:35:00.526Z,81.92
2018-09-10T20:37:28.169Z,82.01
2018-09-10T20:39:55.807Z,82.03
2018-09-10T20:42:23.459Z,83.26
2018-09-10T20:44:51.090Z,82.23
2018-09-10T20:47:18.851Z,83.63
2018-09-10T20:49:46.500Z,82.58
2018-09-10T20:52:14.166Z,82.57
2018-09-10T20:54:41.783Z,83.28
2018-09-10T20:57:09.424Z,83.07
2018-09-10T20:59:37.044Z,82.37
2018-09-10T21:02:04.766Z,83.97
2018-09-10T21:04:32.393Z,82.48
2018-09-10T21:07:00.012Z,83.11
2018-09-10T21:09:27.770Z,82.65
2018-09-10T21:11:55.696Z,82.67
2018-09-10T21:14:23.326Z,83.38
2018-09-10T21:16:50.975Z,83.83
2018-09-10T21:19:19.152Z,84.49
2018-09-10T21:21:46.786Z,84.31
2018-09-10T21:24:14.452Z,83.82
2018-09-10T21:26:42.101Z,83.03
2018-09-10T21:29:09.729Z,82.43
2018-09-10T21:31:37.462Z,83.38
2018-09-10T21:34:05.183Z,82.64
2018-09-10T21:36:32.795Z,82.54
2018-09-10T21:39:00.438Z,84.59
2018-09-10T21:41:28.087Z,83.60
2018-09-10T21:43:55.811Z,83.76
2018-09-10T21:46:23.450Z,84.12
2018-09-10T21:48:51.082Z,83.07
2018-09-10T21:51:18.731Z,83.08
2018-09-10T21:53:46.454Z,82.86
2018-09-10T21:56:14.139Z,83.18
2018-09-10T21:58:41.770Z,83.34
2018-09-10T22:01:09.541Z,84.54
2018-09-10T22:03:37.158Z,83.99
2018-09-10T22:06:04.790Z,83.91
2018-09-10T22:08:32.546Z,83.52
2018-09-10T22:11:00.151Z,83.14
2018-09-10T22:13:27.818Z,84.05
2018-09-10T22:15:55.478Z,83.23
2018-09-10T22:18:23.090Z,82.61
2018-09-10T22:20:50.730Z,82.06
2018-09-10T22:23:18.472Z,83.90
2018-09-10T22:25:46.109Z,83.89
2018-09-10T22:28:13.732Z,82.87
2018-09-10T22:30:41.349Z,83.80
2018-09-10T22:33:08.966Z,83.50
2018-09-10T22:35:36.586Z,83.43
2018-09-10T22:38:04.302Z,82.15
2018-09-10T22:40:31.936Z,81.90
2018-09-10T22:42:59.566Z,82.71
2018-09-10T22:45:27.177Z,82.86
2018-09-10T22:47:54.800Z,83.28
2018-09-10T22:50:22.495Z,82.57
2018-09-10T22:52:50.095Z,83.73
2018-09-10T22:55:17.696Z,83.37
2018-09-10T22:57:45.310Z,83.23
2018-09-10T23:00:13.083Z,84.06
2018-09-10T23:02:40.724Z,83.38
2018-09-10T23:05:08.372Z,83.70
2018-09-10T23:07:36.020Z,83.84
2018-09-10T23:10:03.961Z,83.39
2018-09-10T23:12:31.590Z,83.23
2018-09-10T23:14:59.204Z,83.02
2018-09-10T23:17:26.834Z,82.74
2018-09-10T23:19:54.467Z,82.47
2018-09-10T23:22:22.083Z,82.93
2018-09-10T23:24:49.678Z,83.22
2018-09-10T23:27:17.296Z,83.21
2018-09-10T23:29:44.904Z,83.07
2018-09-10T23:32:12.510Z,83.04
2018-09-10T23:34:40.170Z,84.63
2018-09-10T23:37:07.796Z,83.46
2018-09-10T23:39:35.446Z,85.46
2018-09-10T23:42:03.092Z,85.61
2018-09-10T23:44:30.778Z,85.51
2018-09-10T23:46:58.388Z,84.16
2018-09-10T23:49:25.987Z,83.88
2018-09-10T23:51:53.629Z,84.67
2018-09-10T23:54:21.399Z,84.90
2018-09-10T23:56:49.010Z,83.40
2018-09-10T23:59:16.630Z,84.49
